Terminal Aerodrome Forecast
Issued by NWS

Home | Current Version | Previous Version | Text Only | Print | Product List | Glossary On
Versions: 1 2 3 4 5 6 7 8 9 10 11 12 13 14 15 16 17 18 19 20 21 22 23 24 25
672
FTUS45 KPSR 262322
TAFIWA
TAF
KIWA 262322Z 2700/2724 27012KT P6SM BKN250
      TEMPO 2700/2701 27012G18KT
     FM270700 13007KT P6SM SCT250
     FM272000 26012KT P6SM SCT250
      AMD LTD TO CLD VIS AND WIND 2703/2713=

USA.gov is the U.S. government's official web portal to all federal, state and local government web resources and services.